Time;durP1;ratioP1;P1;durP2;ratioP2;P2;SDS_P1;SDS_P2;PMS_P1;PMS_P2;Temp;Humidity;BMP_temperature;BMP_pressure;BME280_temperature;BME280_humidity;BME280_pressure;Samples;Min_cycle;Max_cycle;Signal;HPM_P1;HPM_P2
2022/09/01 00:01:19;;;;;;;21.03;19.13;;;18.60;99.90;;;;;;10454855;28;20224;-82
2022/09/01 00:06:23;;;;;;;21.07;19.37;;;18.60;99.90;;;;;;10458347;28;20201;-83
2022/09/01 00:11:29;;;;;;;20.50;18.70;;;18.50;99.90;;;;;;10451866;28;20528;-82
2022/09/01 00:16:31;;;;;;;19.93;18.30;;;18.50;99.90;;;;;;10436790;28;20733;-81
2022/09/01 00:21:35;;;;;;;20.60;18.83;;;18.50;99.90;;;;;;10451969;28;20622;-79
2022/09/01 00:26:39;;;;;;;20.93;19.10;;;18.40;99.90;;;;;;10442270;28;20206;-81
2022/09/01 00:31:42;;;;;;;19.37;17.87;;;18.40;99.90;;;;;;10441904;28;20618;-81
2022/09/01 00:36:44;;;;;;;20.03;18.43;;;18.30;99.90;;;;;;10443008;28;20208;-81
2022/09/01 00:41:49;;;;;;;20.33;18.60;;;18.30;99.90;;;;;;10442863;28;20205;-83
2022/09/01 00:46:54;;;;;;;22.10;18.30;;;18.30;99.90;;;;;;10444972;28;20189;-83
2022/09/01 00:52:00;;;;;;;18.90;17.17;;;18.20;99.90;;;;;;10444124;28;20225;-82
2022/09/01 00:57:05;;;;;;;17.60;16.30;;;18.30;99.90;;;;;;10445639;28;20540;-83
2022/09/01 01:02:07;;;;;;;18.63;16.97;;;18.20;99.90;;;;;;10439666;28;20758;-82
2022/09/01 01:07:11;;;;;;;18.50;17.00;;;18.20;99.90;;;;;;10440828;28;20200;-83
2022/09/01 01:12:17;;;;;;;18.37;16.87;;;18.20;99.90;;;;;;10473734;28;20217;-82
2022/09/01 01:17:20;;;;;;;17.00;15.60;;;18.10;99.90;;;;;;10463078;28;20213;-83
2022/09/01 01:27:51;;;;;;;19.20;17.40;;;18.00;99.90;;;;;;10458709;28;20197;-82
2022/09/01 01:32:54;;;;;;;17.10;15.57;;;18.00;99.90;;;;;;10443356;28;20228;-81
2022/09/01 01:37:56;;;;;;;18.03;16.50;;;18.00;99.90;;;;;;10459304;28;20248;-79
2022/09/01 01:43:00;;;;;;;17.73;16.23;;;18.00;99.90;;;;;;10460351;28;20197;-81
2022/09/01 01:48:07;;;;;;;18.13;16.40;;;17.90;99.90;;;;;;10459104;28;20252;-81
2022/09/01 01:53:10;;;;;;;17.37;16.07;;;17.90;99.90;;;;;;10459115;28;20197;-80
2022/09/01 01:58:14;;;;;;;16.50;15.10;;;17.90;99.90;;;;;;10457678;28;20232;-80
2022/09/01 02:03:20;;;;;;;15.80;14.50;;;17.90;99.90;;;;;;10458893;28;20212;-82
2022/09/01 02:08:24;;;;;;;17.70;16.20;;;17.80;99.90;;;;;;10460439;28;20212;-80
2022/09/01 02:13:30;;;;;;;16.27;14.90;;;17.80;99.90;;;;;;10442931;28;20474;-81
2022/09/01 02:18:35;;;;;;;16.30;15.00;;;17.80;99.90;;;;;;10458856;28;20285;-81
2022/09/01 02:23:39;;;;;;;16.60;15.33;;;17.70;99.90;;;;;;10457334;28;20312;-81
2022/09/01 02:28:44;;;;;;;17.27;15.80;;;17.70;99.90;;;;;;10458109;28;20228;-81
2022/09/01 02:33:47;;;;;;;18.67;16.97;;;17.70;99.90;;;;;;10441185;28;20676;-81
2022/09/01 02:38:49;;;;;;;17.00;15.50;;;17.70;99.90;;;;;;10444125;28;20590;-81
2022/09/01 02:43:53;;;;;;;16.73;15.43;;;17.60;99.90;;;;;;10475440;28;20220;-81
2022/09/01 02:48:56;;;;;;;20.13;18.23;;;17.70;99.90;;;;;;10456406;28;20232;-81
2022/09/01 02:53:58;;;;;;;19.47;17.77;;;17.70;99.90;;;;;;10457043;28;20197;-81
2022/09/01 02:59:04;;;;;;;20.77;19.00;;;17.70;99.90;;;;;;10459644;28;20217;-83
2022/09/01 03:04:08;;;;;;;22.10;20.03;;;17.70;99.90;;;;;;10470642;28;20200;-83
2022/09/01 03:09:13;;;;;;;22.20;20.10;;;17.70;99.90;;;;;;10449039;28;20267;-83
2022/09/01 03:14:18;;;;;;;21.90;19.80;;;17.70;99.90;;;;;;10450823;28;20196;-81
2022/09/01 03:19:20;;;;;;;19.67;17.97;;;17.70;99.90;;;;;;10454007;28;20299;-81
2022/09/01 03:24:23;;;;;;;22.50;20.37;;;17.70;99.90;;;;;;10439109;28;20208;-81
2022/09/01 03:29:28;;;;;;;19.63;18.00;;;17.60;99.90;;;;;;10439542;28;20217;-81
2022/09/01 03:34:33;;;;;;;20.67;18.87;;;17.60;99.90;;;;;;10458710;28;20543;-81
2022/09/01 03:39:35;;;;;;;20.60;18.43;;;17.50;99.90;;;;;;10439615;28;20391;-81
2022/09/01 03:44:40;;;;;;;21.50;19.70;;;17.50;99.90;;;;;;10455853;28;20247;-81
2022/09/01 03:49:44;;;;;;;17.00;15.60;;;17.50;99.90;;;;;;10450194;28;20232;-81
2022/09/01 03:54:46;;;;;;;22.27;20.17;;;17.50;99.90;;;;;;10456144;28;20189;-81
2022/09/01 03:59:50;;;;;;;21.67;19.67;;;17.40;99.90;;;;;;10463217;28;20217;-81
2022/09/01 04:04:52;;;;;;;21.40;19.30;;;17.40;99.90;;;;;;10457288;28;20259;-80
2022/09/01 04:09:55;;;;;;;21.80;20.00;;;17.40;99.90;;;;;;10463226;28;20576;-82
2022/09/01 04:15:00;;;;;;;22.37;20.30;;;17.40;99.90;;;;;;10447093;28;20199;-81
2022/09/01 04:20:07;;;;;;;21.37;19.50;;;17.40;99.90;;;;;;10464229;28;20217;-81
2022/09/01 04:25:09;;;;;;;22.10;20.33;;;17.40;99.90;;;;;;10463913;28;20231;-80
2022/09/01 04:30:13;;;;;;;21.47;19.63;;;17.30;99.90;;;;;;10461384;28;20669;-82
2022/09/01 04:35:26;;;;;;;22.67;20.67;;;17.30;99.90;;;;;;10463500;28;20234;-81
2022/09/01 04:40:29;;;;;;;21.70;19.80;;;17.20;99.90;;;;;;10460141;28;20315;-81
2022/09/01 04:45:35;;;;;;;23.13;21.23;;;17.20;99.90;;;;;;10458165;28;20240;-81
2022/09/01 04:50:40;;;;;;;23.23;21.10;;;17.10;99.90;;;;;;10461468;28;20220;-81
2022/09/01 04:55:53;;;;;;;22.20;20.30;;;17.20;99.90;;;;;;10472032;28;20216;-80
2022/09/01 05:00:59;;;;;;;21.60;19.70;;;17.20;99.90;;;;;;10462624;28;20304;-80
2022/09/01 05:06:02;;;;;;;23.60;21.60;;;17.20;99.90;;;;;;10464716;28;20209;-81
2022/09/01 05:11:06;;;;;;;21.93;19.97;;;17.20;99.90;;;;;;10449586;28;20633;-81
2022/09/01 05:16:24;;;;;;;21.43;19.63;;;17.30;99.90;;;;;;10444240;28;20314;-82
2022/09/01 05:21:28;;;;;;;22.33;20.50;;;17.30;99.90;;;;;;10458788;28;20239;-82
2022/09/01 05:26:33;;;;;;;22.40;20.50;;;17.30;99.90;;;;;;10457859;28;20205;-82
2022/09/01 05:31:37;;;;;;;21.70;20.00;;;17.30;99.90;;;;;;10452177;28;20216;-81
2022/09/01 05:36:43;;;;;;;20.50;18.83;;;17.40;99.90;;;;;;10446520;28;20665;-80
2022/09/01 05:41:46;;;;;;;23.00;21.00;;;17.50;99.90;;;;;;10441364;28;20723;-81
2022/09/01 05:46:52;;;;;;;19.27;17.77;;;17.40;99.90;;;;;;10457653;28;20193;-81
2022/09/01 05:51:57;;;;;;;23.50;21.37;;;17.50;99.90;;;;;;10456368;28;20225;-81
2022/09/01 05:57:02;;;;;;;22.67;20.87;;;17.50;99.90;;;;;;10456734;28;20204;-80
2022/09/01 06:02:07;;;;;;;21.53;19.70;;;17.60;99.90;;;;;;10458703;28;20284;-81
2022/09/01 06:07:13;;;;;;;21.67;19.90;;;17.70;99.90;;;;;;10467705;28;20200;-80
2022/09/01 06:12:22;;;;;;;21.00;19.20;;;17.80;99.90;;;;;;10460616;28;20217;-80
2022/09/01 06:17:29;;;;;;;22.27;20.27;;;18.00;99.90;;;;;;10458937;28;20197;-80
2022/09/01 06:22:37;;;;;;;22.03;20.33;;;18.20;99.90;;;;;;10459974;28;20201;-81
2022/09/01 06:27:43;;;;;;;23.30;21.40;;;18.40;99.90;;;;;;10461516;28;20201;-80
2022/09/01 06:32:48;;;;;;;24.00;22.07;;;18.50;99.90;;;;;;10463092;28;20193;-80
2022/09/01 06:37:51;;;;;;;22.87;20.83;;;18.70;99.90;;;;;;10461002;28;20205;-80
2022/09/01 06:43:11;;;;;;;21.33;19.53;;;18.90;99.90;;;;;;10460758;28;20255;-81
2022/09/01 06:48:16;;;;;;;21.63;19.73;;;19.10;99.90;;;;;;10468408;28;20252;-80
2022/09/01 06:53:20;;;;;;;21.50;19.07;;;19.30;99.90;;;;;;10461225;28;20204;-81
2022/09/01 06:58:24;;;;;;;19.90;18.10;;;19.50;99.90;;;;;;10458241;28;20231;-81
2022/09/01 07:03:30;;;;;;;20.30;18.60;;;19.70;99.90;;;;;;10458108;28;20280;-81
2022/09/01 07:08:50;;;;;;;20.60;18.60;;;19.80;99.90;;;;;;10458403;28;20681;-81
2022/09/01 07:14:14;;;;;;;20.63;18.53;;;20.00;99.90;;;;;;10460691;28;20224;-81
2022/09/01 07:19:18;;;;;;;20.13;18.17;;;20.10;99.90;;;;;;10459206;28;20225;-80
2022/09/01 07:24:34;;;;;;;19.70;18.07;;;20.20;99.90;;;;;;10454768;28;20239;-80
2022/09/01 07:30:08;;;;;;;20.00;18.23;;;20.30;99.90;;;;;;10425318;28;20206;-81
2022/09/01 07:35:13;;;;;;;18.50;16.70;;;20.50;99.90;;;;;;10464106;28;20213;-81
2022/09/01 07:40:19;;;;;;;17.90;16.40;;;20.50;99.90;;;;;;10441223;28;20214;-81
2022/09/01 07:45:37;;;;;;;17.67;16.07;;;20.50;99.90;;;;;;10447324;28;20196;-82
2022/09/01 07:50:46;;;;;;;17.67;16.03;;;20.60;99.90;;;;;;10463676;28;20231;-80
2022/09/01 07:55:49;;;;;;;16.73;15.40;;;20.80;99.90;;;;;;10462994;28;20607;-81
2022/09/01 08:00:53;;;;;;;15.17;13.90;;;21.00;99.90;;;;;;10462973;28;20700;-79
2022/09/01 08:06:05;;;;;;;16.30;14.93;;;21.20;99.90;;;;;;10446078;28;20221;-81
2022/09/01 08:11:08;;;;;;;15.43;14.07;;;21.30;99.90;;;;;;10462688;28;20559;-80
2022/09/01 08:16:12;;;;;;;14.80;13.60;;;21.30;99.90;;;;;;10464419;28;20200;-81
2022/09/01 08:21:20;;;;;;;14.40;13.20;;;21.20;99.90;;;;;;10446714;28;20312;-81
2022/09/01 08:26:41;;;;;;;13.00;12.10;;;21.20;99.90;;;;;;10463789;28;20200;-81
2022/09/01 08:31:46;;;;;;;13.23;12.20;;;21.40;99.90;;;;;;10447160;28;20217;-81
2022/09/01 08:36:49;;;;;;;12.47;11.57;;;21.50;99.90;;;;;;10465096;28;20196;-81
2022/09/01 08:41:58;;;;;;;12.90;12.00;;;21.60;99.90;;;;;;10472680;28;20224;-81
2022/09/01 08:47:05;;;;;;;13.23;12.03;;;21.60;99.90;;;;;;10462949;28;20217;-80
2022/09/01 08:52:19;;;;;;;12.40;11.43;;;21.60;99.90;;;;;;10466391;28;20693;-81
2022/09/01 08:57:30;;;;;;;13.43;12.33;;;21.50;99.90;;;;;;10468878;28;20199;-81
2022/09/01 09:03:10;;;;;;;11.97;11.10;;;21.40;99.90;;;;;;10436428;28;20638;-82
2022/09/01 09:08:29;;;;;;;11.43;10.60;;;21.30;99.90;;;;;;10449390;28;20213;-83
2022/09/01 09:13:39;;;;;;;12.27;11.07;;;21.50;99.90;;;;;;10443008;28;20650;-83
2022/09/01 09:18:48;;;;;;;25.67;23.47;;;21.70;99.90;;;;;;10444219;28;20209;-83
2022/09/01 09:23:58;;;;;;;10.90;10.20;;;21.80;99.90;;;;;;10453210;28;20612;-81
2022/09/01 09:29:01;;;;;;;10.87;9.97;;;21.80;99.90;;;;;;10445966;28;20518;-81
2022/09/01 09:34:03;;;;;;;11.33;10.53;;;21.80;99.90;;;;;;10456354;28;20185;-81
2022/09/01 09:39:10;;;;;;;13.13;12.00;;;21.80;99.90;;;;;;10426176;28;20213;-80
2022/09/01 09:44:21;;;;;;;12.53;11.53;;;21.90;99.90;;;;;;10444652;28;20197;-82
2022/09/01 09:49:25;;;;;;;11.60;10.50;;;22.10;99.90;;;;;;10443251;28;20213;-82
2022/09/01 09:54:31;;;;;;;9.90;9.10;;;22.20;99.90;;;;;;10426216;28;20578;-81
2022/09/01 09:59:38;;;;;;;10.27;9.57;;;22.40;99.90;;;;;;10442658;28;20227;-82
2022/09/01 10:04:40;;;;;;;8.60;8.00;;;22.70;99.90;;;;;;10441775;28;20209;-80
2022/09/01 10:09:44;;;;;;;8.37;7.83;;;22.90;99.90;;;;;;10441724;28;20232;-81
2022/09/01 10:14:51;;;;;;;7.90;7.40;;;22.90;99.90;;;;;;10441759;28;20205;-80
2022/09/01 10:19:57;;;;;;;9.77;8.93;;;23.00;99.90;;;;;;10441655;28;20267;-81
2022/09/01 10:25:01;;;;;;;8.70;8.00;;;23.10;99.90;;;;;;10423844;28;20629;-83
2022/09/01 10:30:07;;;;;;;8.43;7.93;;;23.10;99.90;;;;;;10460847;28;20240;-83
2022/09/01 10:35:17;;;;;;;9.00;8.30;;;23.10;99.90;;;;;;10469203;28;20256;-83
2022/09/01 10:40:39;;;;;;;8.13;7.63;;;23.10;99.90;;;;;;10461344;28;20237;-83
2022/09/01 10:45:42;;;;;;;8.17;7.67;;;23.20;99.90;;;;;;10461732;28;20219;-81
2022/09/01 10:50:45;;;;;;;8.47;7.80;;;23.20;99.90;;;;;;10459171;28;20229;-81
2022/09/01 10:56:02;;;;;;;6.77;6.30;;;23.20;99.90;;;;;;10459646;28;20625;-81
2022/09/01 11:01:04;;;;;;;7.10;6.60;;;23.30;98.50;;;;;;10467499;28;20231;-81
2022/09/01 11:06:08;;;;;;;7.23;6.77;;;23.40;97.80;;;;;;10458213;28;20221;-81
2022/09/01 11:11:25;;;;;;;7.57;7.17;;;23.30;98.50;;;;;;10461572;28;20221;-79
2022/09/01 11:16:32;;;;;;;6.57;6.27;;;23.30;97.70;;;;;;10457604;28;20197;-81
2022/09/01 11:21:34;;;;;;;7.80;7.30;;;23.00;98.60;;;;;;10458579;28;20243;-81
2022/09/01 11:26:47;;;;;;;7.90;7.40;;;23.00;99.10;;;;;;10458457;28;20273;-81
2022/09/01 11:31:50;;;;;;;8.83;8.27;;;23.00;99.60;;;;;;10461218;28;20213;-81
2022/09/01 11:36:59;;;;;;;7.43;6.93;;;23.10;98.70;;;;;;10465358;28;20213;-80
2022/09/01 11:42:09;;;;;;;7.57;7.10;;;23.00;99.20;;;;;;10460164;28;20231;-81
2022/09/01 11:47:15;;;;;;;7.50;6.97;;;22.80;98.80;;;;;;10456119;28;20193;-81
2022/09/01 11:52:19;;;;;;;7.00;6.60;;;22.70;99.90;;;;;;10456032;28;20575;-81
2022/09/01 11:57:27;;;;;;;7.80;7.30;;;22.70;98.70;;;;;;10459307;28;20346;-81
2022/09/01 12:02:32;;;;;;;8.93;8.33;;;22.80;99.80;;;;;;10457871;28;20731;-81
2022/09/01 12:07:41;;;;;;;6.53;6.07;;;23.10;99.90;;;;;;10452196;28;20564;-81
2022/09/01 12:12:44;;;;;;;6.87;6.57;;;23.40;98.20;;;;;;10435796;28;20194;-81
2022/09/01 12:17:47;;;;;;;8.20;7.70;;;23.60;98.30;;;;;;10440252;28;20194;-81
2022/09/01 12:22:49;;;;;;;7.30;6.90;;;23.70;96.60;;;;;;10445171;28;20209;-81
2022/09/01 12:27:54;;;;;;;7.80;7.20;;;23.60;97.60;;;;;;10454892;28;20205;-83
2022/09/01 12:32:57;;;;;;;7.40;6.80;;;23.80;97.40;;;;;;10444700;28;20201;-83
2022/09/01 12:38:21;;;;;;;6.00;5.70;;;23.80;97.10;;;;;;10448667;28;20350;-83
2022/09/01 12:43:34;;;;;;;7.00;6.60;;;23.70;97.40;;;;;;10444349;28;20411;-82
2022/09/01 12:48:38;;;;;;;7.40;7.00;;;23.60;96.10;;;;;;10441817;28;20241;-81
2022/09/01 12:53:40;;;;;;;6.93;6.53;;;23.20;95.70;;;;;;10441686;28;20189;-80
2022/09/01 12:58:47;;;;;;;7.27;6.90;;;22.90;95.60;;;;;;10442147;28;20221;-81
2022/09/01 13:04:22;;;;;;;6.20;5.80;;;22.70;97.20;;;;;;10441548;28;20200;-80
2022/09/01 13:09:26;;;;;;;7.70;7.20;;;22.60;95.90;;;;;;10430957;28;20324;-80
2022/09/01 13:14:30;;;;;;;6.50;6.20;;;22.50;96.30;;;;;;10441635;28;20186;-81
2022/09/01 13:19:32;;;;;;;6.10;5.73;;;22.60;96.70;;;;;;10446417;28;20844;-82
2022/09/01 13:24:34;;;;;;;6.87;6.57;;;22.80;94.90;;;;;;10447244;28;20193;-81
2022/09/01 13:29:37;;;;;;;6.57;6.17;;;23.10;95.40;;;;;;10443441;28;20213;-81
2022/09/01 13:34:40;;;;;;;6.73;6.33;;;23.40;93.40;;;;;;10446192;28;20189;-81
2022/09/01 13:39:42;;;;;;;7.00;6.40;;;23.50;95.20;;;;;;10463099;28;20300;-81
2022/09/01 13:44:47;;;;;;;7.10;6.70;;;23.60;94.80;;;;;;10449780;28;20203;-82
2022/09/01 13:49:49;;;;;;;7.37;6.97;;;23.60;94.40;;;;;;10440825;28;20228;-82
2022/09/01 13:54:51;;;;;;;6.67;6.30;;;23.60;94.20;;;;;;10462497;28;20924;-82
2022/09/01 13:59:55;;;;;;;7.00;6.40;;;23.40;94.00;;;;;;10461153;28;20221;-82
2022/09/01 14:04:57;;;;;;;7.50;7.13;;;23.30;93.10;;;;;;10487876;28;20288;-82
2022/09/01 14:10:00;;;;;;;6.43;6.03;;;23.10;95.10;;;;;;10468361;28;20212;-82
2022/09/01 14:15:04;;;;;;;6.77;6.37;;;23.00;95.60;;;;;;10463547;28;20247;-82
2022/09/01 14:20:09;;;;;;;6.83;6.53;;;23.00;94.80;;;;;;10467248;28;20320;-82
2022/09/01 14:25:12;;;;;;;5.87;5.57;;;23.00;94.40;;;;;;10457732;28;20193;-80
2022/09/01 14:30:18;;;;;;;6.93;6.53;;;23.20;95.10;;;;;;10458217;28;20443;-82
2022/09/01 14:35:22;;;;;;;7.20;6.80;;;23.40;94.60;;;;;;10462089;28;20224;-82
2022/09/01 14:40:27;;;;;;;6.53;6.13;;;23.40;94.50;;;;;;10454594;28;20217;-85
2022/09/01 14:45:31;;;;;;;6.87;6.53;;;23.50;93.20;;;;;;10485186;28;20193;-82
2022/09/01 14:50:33;;;;;;;6.70;6.30;;;23.50;93.30;;;;;;10464693;28;20582;-82
2022/09/01 14:55:36;;;;;;;5.40;5.00;;;23.60;93.80;;;;;;10459169;28;20279;-81
2022/09/01 15:00:40;;;;;;;6.20;5.90;;;23.70;93.20;;;;;;10459093;28;20281;-80
2022/09/01 15:05:42;;;;;;;6.50;6.20;;;23.60;92.90;;;;;;10457065;28;20236;-80
2022/09/01 15:10:45;;;;;;;5.50;5.20;;;23.50;91.60;;;;;;10459091;28;20213;-81
2022/09/01 15:15:52;;;;;;;6.30;5.90;;;23.40;91.50;;;;;;10458662;28;20220;-82
2022/09/01 15:20:54;;;;;;;6.00;5.70;;;23.30;92.60;;;;;;10459673;28;20221;-83
2022/09/01 15:25:57;;;;;;;5.50;5.20;;;23.20;91.30;;;;;;10460364;28;20246;-81
2022/09/01 15:31:00;;;;;;;6.53;6.13;;;23.10;92.10;;;;;;10459303;28;20563;-82
2022/09/01 15:36:03;;;;;;;6.10;5.70;;;23.00;92.40;;;;;;10459847;28;20221;-82
2022/09/01 15:41:05;;;;;;;5.63;5.30;;;23.00;92.80;;;;;;10481252;28;20213;-80
2022/09/01 15:46:10;;;;;;;6.30;5.90;;;23.00;93.00;;;;;;10465981;28;20201;-80
2022/09/01 15:51:29;;;;;;;6.23;5.80;;;23.00;93.50;;;;;;10474997;28;20221;-83
2022/09/01 15:56:32;;;;;;;6.00;5.70;;;23.10;91.60;;;;;;10466009;28;20197;-81
2022/09/01 16:01:38;;;;;;;6.20;5.90;;;23.10;92.10;;;;;;10465294;28;20298;-82
2022/09/01 16:06:40;;;;;;;6.07;5.77;;;23.00;94.30;;;;;;10450857;28;20603;-82
2022/09/01 16:11:43;;;;;;;4.63;4.33;;;23.00;91.40;;;;;;10472744;28;20221;-82
2022/09/01 16:16:53;;;;;;;3.80;3.60;;;23.00;93.70;;;;;;10463441;28;20288;-82
2022/09/01 16:22:05;;;;;;;6.40;6.10;;;22.90;92.90;;;;;;10461026;28;20240;-82
2022/09/01 16:27:10;;;;;;;6.17;5.50;;;22.90;94.10;;;;;;10462023;28;20571;-82
2022/09/01 16:32:14;;;;;;;5.97;5.50;;;22.80;92.50;;;;;;10462558;28;20218;-82
2022/09/01 16:37:30;;;;;;;6.40;5.90;;;22.80;92.20;;;;;;10452548;28;20231;-82
2022/09/01 16:42:41;;;;;;;6.87;6.50;;;22.80;93.20;;;;;;10460707;28;20221;-82
2022/09/01 16:47:59;;;;;;;6.83;6.33;;;22.70;93.50;;;;;;10459684;28;20204;-82
2022/09/01 16:53:16;;;;;;;6.53;6.10;;;22.70;94.20;;;;;;10461640;28;20192;-82
2022/09/01 16:58:27;;;;;;;5.50;5.20;;;22.70;94.50;;;;;;10463368;28;20283;-80
2022/09/01 17:03:35;;;;;;;5.93;5.63;;;22.80;93.20;;;;;;10462285;28;20221;-82
2022/09/01 17:08:51;;;;;;;6.17;5.87;;;22.70;93.60;;;;;;10465756;28;20662;-81
2022/09/01 17:13:54;;;;;;;7.30;6.60;;;22.60;92.50;;;;;;10459993;28;20189;-81
2022/09/01 17:19:03;;;;;;;7.60;7.10;;;22.60;92.80;;;;;;10457575;28;20217;-81
2022/09/01 17:24:11;;;;;;;7.17;6.77;;;22.50;93.50;;;;;;10458301;28;20270;-82
2022/09/01 17:29:21;;;;;;;6.00;5.60;;;22.50;92.80;;;;;;10444623;28;20301;-81
2022/09/01 17:34:37;;;;;;;6.57;6.27;;;22.40;92.40;;;;;;10450213;28;20516;-81
2022/09/01 17:39:49;;;;;;;7.00;6.40;;;22.30;93.30;;;;;;10464197;28;20255;-81
2022/09/01 17:44:55;;;;;;;6.70;6.33;;;22.30;93.00;;;;;;10482275;28;20200;-80
2022/09/01 17:50:09;;;;;;;6.13;5.83;;;22.20;93.10;;;;;;10471083;28;20229;-81
2022/09/01 17:55:21;;;;;;;6.77;6.27;;;22.10;95.00;;;;;;10460474;28;20227;-81
2022/09/01 18:00:26;;;;;;;9.03;6.77;;;22.00;94.90;;;;;;10480155;28;20216;-81
2022/09/01 18:05:38;;;;;;;7.03;6.50;;;21.90;95.00;;;;;;10468440;28;20229;-81
2022/09/01 18:10:45;;;;;;;6.23;5.93;;;21.80;95.20;;;;;;10461572;28;20205;-81
2022/09/01 18:15:50;;;;;;;6.53;6.13;;;21.70;95.20;;;;;;10459562;28;20209;-81
2022/09/01 18:21:00;;;;;;;6.60;6.20;;;21.60;96.00;;;;;;10459960;28;20713;-81
2022/09/01 18:26:09;;;;;;;6.80;6.33;;;21.50;96.00;;;;;;10460344;28;20235;-82
2022/09/01 18:31:22;;;;;;;7.03;6.53;;;21.40;97.20;;;;;;10442369;28;20735;-81
2022/09/01 18:36:38;;;;;;;6.00;5.70;;;21.30;97.20;;;;;;10457915;28;20292;-81
2022/09/01 18:41:56;;;;;;;6.37;5.93;;;21.20;96.20;;;;;;10478043;28;20304;-82
2022/09/01 18:47:03;;;;;;;6.87;6.37;;;21.10;98.00;;;;;;10461143;28;20238;-82
2022/09/01 18:52:20;;;;;;;5.83;5.53;;;21.00;99.20;;;;;;10469630;28;20229;-82
2022/09/01 18:57:35;;;;;;;5.40;5.10;;;21.00;99.20;;;;;;10448158;28;20193;-82
2022/09/01 19:02:59;;;;;;;5.60;5.30;;;20.90;97.00;;;;;;10473569;28;20221;-81
2022/09/01 19:08:10;;;;;;;6.30;5.83;;;20.80;96.50;;;;;;10457724;28;20217;-80
2022/09/01 19:13:26;;;;;;;6.00;5.50;;;20.70;96.90;;;;;;10432332;28;20276;-81
2022/09/01 19:18:36;;;;;;;5.90;5.50;;;20.60;97.50;;;;;;10419719;28;20223;-80
2022/09/01 19:23:48;;;;;;;6.07;5.57;;;20.50;96.60;;;;;;10436605;28;20201;-81
2022/09/01 19:28:54;;;;;;;6.07;5.77;;;20.40;96.30;;;;;;10459261;28;20225;-80
2022/09/01 19:33:59;;;;;;;5.80;5.50;;;20.30;96.40;;;;;;10459012;28;20201;-80
2022/09/01 19:39:04;;;;;;;7.20;6.67;;;20.20;96.30;;;;;;10472747;28;20224;-81
2022/09/01 19:44:14;;;;;;;4.77;4.47;;;20.10;97.10;;;;;;10458423;28;20239;-81
2022/09/01 19:49:25;;;;;;;6.07;5.67;;;20.10;97.60;;;;;;10470979;28;20323;-80
2022/09/01 19:54:39;;;;;;;7.00;6.50;;;20.00;96.80;;;;;;10455934;28;20197;-81
2022/09/01 19:59:52;;;;;;;5.97;5.43;;;19.90;98.00;;;;;;10475097;28;20253;-82
2022/09/01 20:05:02;;;;;;;7.73;7.13;;;19.90;97.50;;;;;;10443225;28;20213;-82
2022/09/01 20:10:19;;;;;;;7.80;7.10;;;19.80;97.70;;;;;;10440334;28;20220;-83
2022/09/01 20:15:30;;;;;;;9.00;7.17;;;19.80;98.30;;;;;;10458757;28;20193;-80
2022/09/01 20:20:38;;;;;;;6.30;5.90;;;19.80;98.00;;;;;;10475493;28;20221;-81
2022/09/01 20:25:46;;;;;;;7.80;7.30;;;19.70;98.50;;;;;;10452556;28;20649;-83
2022/09/01 20:30:51;;;;;;;7.00;6.60;;;19.70;98.40;;;;;;10441382;28;20924;-82
2022/09/01 20:36:00;;;;;;;7.40;6.00;;;19.70;99.30;;;;;;10447474;28;20324;-83
2022/09/01 20:41:08;;;;;;;7.23;6.73;;;19.70;97.90;;;;;;10450644;28;20217;-82
2022/09/01 20:46:10;;;;;;;6.80;6.30;;;19.60;98.70;;;;;;10445262;28;20560;-82
2022/09/01 20:51:17;;;;;;;7.73;7.10;;;19.60;98.00;;;;;;10438823;28;20231;-82
2022/09/01 20:56:29;;;;;;;6.80;6.20;;;19.60;98.80;;;;;;10442724;28;20197;-81
2022/09/01 21:01:39;;;;;;;7.10;6.60;;;19.50;97.60;;;;;;10440020;28;20296;-82
2022/09/01 21:06:49;;;;;;;6.10;5.70;;;19.50;98.50;;;;;;10417042;28;20257;-83
2022/09/01 21:12:00;;;;;;;7.23;6.63;;;19.40;97.20;;;;;;10441774;28;20701;-82
2022/09/01 21:17:09;;;;;;;7.10;6.60;;;19.40;97.20;;;;;;10458497;28;20186;-82
2022/09/01 21:22:13;;;;;;;7.47;6.87;;;19.30;97.00;;;;;;10459559;28;20237;-83
2022/09/01 21:27:21;;;;;;;7.80;7.30;;;19.20;97.30;;;;;;10460267;28;20272;-80
2022/09/01 21:32:24;;;;;;;6.40;6.00;;;19.20;97.90;;;;;;10421235;28;20217;-79
2022/09/01 21:37:27;;;;;;;7.70;7.10;;;19.10;98.00;;;;;;10419551;28;20268;-82
2022/09/01 21:42:34;;;;;;;7.30;6.80;;;19.10;97.40;;;;;;10432819;28;20211;-82
2022/09/01 21:47:36;;;;;;;7.50;6.90;;;19.00;98.20;;;;;;10462002;28;20227;-82
2022/09/01 21:52:39;;;;;;;7.70;7.20;;;19.00;97.40;;;;;;10459795;28;20236;-81
2022/09/01 21:57:44;;;;;;;6.83;6.33;;;19.00;98.30;;;;;;10461537;28;20410;-82
2022/09/01 22:02:47;;;;;;;7.07;6.47;;;18.90;98.40;;;;;;10458029;28;20205;-83
2022/09/01 22:07:49;;;;;;;7.67;7.10;;;18.90;97.70;;;;;;10465315;28;20285;-80
2022/09/01 22:12:53;;;;;;;6.27;5.90;;;18.90;98.40;;;;;;10440899;28;20328;-81
2022/09/01 22:17:57;;;;;;;6.00;5.70;;;18.80;98.00;;;;;;10457840;28;20636;-82
2022/09/01 22:23:00;;;;;;;6.30;5.90;;;18.80;98.30;;;;;;10459952;28;20216;-82
2022/09/01 22:28:05;;;;;;;6.77;6.37;;;18.70;98.60;;;;;;10457316;28;20221;-82
2022/09/01 22:33:08;;;;;;;6.63;6.23;;;18.70;99.00;;;;;;10458334;28;20219;-82
2022/09/01 22:38:11;;;;;;;8.23;7.50;;;18.60;97.90;;;;;;10456816;28;20213;-82
2022/09/01 22:43:16;;;;;;;7.80;7.27;;;18.60;99.00;;;;;;10460689;28;20221;-82
2022/09/01 22:48:20;;;;;;;6.93;6.33;;;18.50;98.70;;;;;;10458537;28;20225;-82
2022/09/01 22:53:22;;;;;;;6.60;6.20;;;18.50;98.00;;;;;;10441856;28;20243;-82
2022/09/01 22:58:26;;;;;;;5.07;4.67;;;18.40;98.30;;;;;;10446848;28;20221;-82
2022/09/01 23:03:28;;;;;;;6.30;6.00;;;18.30;98.40;;;;;;10458400;28;20525;-82
2022/09/01 23:08:30;;;;;;;5.80;5.50;;;18.30;99.50;;;;;;10443631;28;20288;-82
2022/09/01 23:13:35;;;;;;;7.23;5.80;;;18.20;98.70;;;;;;10459729;28;20189;-82
2022/09/01 23:18:39;;;;;;;6.67;6.27;;;18.20;98.30;;;;;;10458063;28;20232;-82
2022/09/01 23:23:42;;;;;;;6.20;5.70;;;18.20;99.90;;;;;;10440941;28;20696;-81
2022/09/01 23:28:46;;;;;;;5.50;5.07;;;18.20;99.60;;;;;;10455775;28;20219;-80
2022/09/01 23:33:48;;;;;;;5.77;5.27;;;18.20;99.90;;;;;;10458841;28;20173;-80
2022/09/01 23:38:51;;;;;;;5.50;5.23;;;18.10;99.10;;;;;;10458443;28;20220;-80
2022/09/01 23:43:55;;;;;;;5.83;5.43;;;18.10;99.60;;;;;;10446380;28;20661;-81
2022/09/01 23:48:57;;;;;;;4.57;4.37;;;18.10;99.90;;;;;;10443321;28;20324;-80
2022/09/01 23:53:59;;;;;;;5.43;4.93;;;18.00;99.20;;;;;;10457759;28;20197;-83
2022/09/01 23:59:03;;;;;;;5.20;4.80;;;18.00;99.90;;;;;;10434129;28;20554;-82
